sensor_id;sensor_type;location;lat;lon;timestamp;temperature;humidity
18823;DHT22;9540;51.550;7.980;2022-08-21T00:01:18;15.70;99.90
18823;DHT22;9540;51.550;7.980;2022-08-21T00:03:48;15.70;99.90
18823;DHT22;9540;51.550;7.980;2022-08-21T00:06:15;15.70;99.90
18823;DHT22;9540;51.550;7.980;2022-08-21T00:08:42;15.60;99.90
18823;DHT22;9540;51.550;7.980;2022-08-21T00:11:10;15.60;99.90
18823;DHT22;9540;51.550;7.980;2022-08-21T00:13:39;15.60;99.90
18823;DHT22;9540;51.550;7.980;2022-08-21T00:16:07;15.60;99.90
18823;DHT22;9540;51.550;7.980;2022-08-21T00:18:34;15.50;99.90
18823;DHT22;9540;51.550;7.980;2022-08-21T00:21:03;15.50;99.90
18823;DHT22;9540;51.550;7.980;2022-08-21T00:23:33;15.50;99.90
18823;DHT22;9540;51.550;7.980;2022-08-21T00:26:00;15.50;99.90
18823;DHT22;9540;51.550;7.980;2022-08-21T00:28:28;15.50;99.90
18823;DHT22;9540;51.550;7.980;2022-08-21T00:30:55;15.40;99.90
18823;DHT22;9540;51.550;7.980;2022-08-21T00:33:23;15.40;99.90
18823;DHT22;9540;51.550;7.980;2022-08-21T00:35:51;15.40;99.90
18823;DHT22;9540;51.550;7.980;2022-08-21T00:38:19;15.30;99.90
18823;DHT22;9540;51.550;7.980;2022-08-21T00:40:48;15.30;99.90
18823;DHT22;9540;51.550;7.980;2022-08-21T00:43:18;15.30;99.90
18823;DHT22;9540;51.550;7.980;2022-08-21T00:45:46;15.30;99.90
18823;DHT22;9540;51.550;7.980;2022-08-21T00:48:13;15.30;99.90
18823;DHT22;9540;51.550;7.980;2022-08-21T00:50:44;15.30;99.90
18823;DHT22;9540;51.550;7.980;2022-08-21T00:53:13;15.30;99.90
18823;DHT22;9540;51.550;7.980;2022-08-21T00:55:43;15.30;99.90
18823;DHT22;9540;51.550;7.980;2022-08-21T00:58:12;15.30;99.90
18823;DHT22;9540;51.550;7.980;2022-08-21T01:00:42;15.30;99.90
18823;DHT22;9540;51.550;7.980;2022-08-21T01:03:13;15.20;99.90
18823;DHT22;9540;51.550;7.980;2022-08-21T01:05:41;15.20;99.90
18823;DHT22;9540;51.550;7.980;2022-08-21T01:08:09;15.10;99.90
18823;DHT22;9540;51.550;7.980;2022-08-21T01:10:37;15.00;99.90
18823;DHT22;9540;51.550;7.980;2022-08-21T01:13:07;14.90;99.90
18823;DHT22;9540;51.550;7.980;2022-08-21T01:15:38;14.80;99.90
18823;DHT22;9540;51.550;7.980;2022-08-21T01:18:06;14.70;99.90
18823;DHT22;9540;51.550;7.980;2022-08-21T01:20:35;14.60;99.90
18823;DHT22;9540;51.550;7.980;2022-08-21T01:23:05;14.60;99.90
18823;DHT22;9540;51.550;7.980;2022-08-21T01:25:33;14.50;99.90
18823;DHT22;9540;51.550;7.980;2022-08-21T01:28:11;14.50;99.90
18823;DHT22;9540;51.550;7.980;2022-08-21T01:30:40;14.50;99.90
18823;DHT22;9540;51.550;7.980;2022-08-21T01:33:09;14.50;99.90
18823;DHT22;9540;51.550;7.980;2022-08-21T01:35:36;14.50;99.90
18823;DHT22;9540;51.550;7.980;2022-08-21T01:38:05;14.50;99.90
18823;DHT22;9540;51.550;7.980;2022-08-21T01:40:32;14.60;99.90
18823;DHT22;9540;51.550;7.980;2022-08-21T01:43:00;14.50;99.90
18823;DHT22;9540;51.550;7.980;2022-08-21T01:45:28;14.50;99.90
18823;DHT22;9540;51.550;7.980;2022-08-21T01:47:55;14.60;99.90
18823;DHT22;9540;51.550;7.980;2022-08-21T01:50:22;14.50;99.90
18823;DHT22;9540;51.550;7.980;2022-08-21T01:52:50;14.60;99.90
18823;DHT22;9540;51.550;7.980;2022-08-21T01:55:21;14.60;99.90
18823;DHT22;9540;51.550;7.980;2022-08-21T01:57:48;14.60;99.90
18823;DHT22;9540;51.550;7.980;2022-08-21T02:00:18;14.70;99.90
18823;DHT22;9540;51.550;7.980;2022-08-21T02:02:46;14.80;99.90
18823;DHT22;9540;51.550;7.980;2022-08-21T02:05:13;14.90;99.90
18823;DHT22;9540;51.550;7.980;2022-08-21T02:07:42;14.90;99.90
18823;DHT22;9540;51.550;7.980;2022-08-21T02:10:11;15.00;99.90
18823;DHT22;9540;51.550;7.980;2022-08-21T02:12:40;15.10;99.90
18823;DHT22;9540;51.550;7.980;2022-08-21T02:15:08;15.20;99.90
18823;DHT22;9540;51.550;7.980;2022-08-21T02:17:40;15.20;99.90
18823;DHT22;9540;51.550;7.980;2022-08-21T02:20:09;15.30;99.90
18823;DHT22;9540;51.550;7.980;2022-08-21T02:22:36;15.30;99.90
18823;DHT22;9540;51.550;7.980;2022-08-21T02:25:07;15.30;99.90
18823;DHT22;9540;51.550;7.980;2022-08-21T02:27:40;15.30;99.90
18823;DHT22;9540;51.550;7.980;2022-08-21T02:30:10;15.30;99.90
18823;DHT22;9540;51.550;7.980;2022-08-21T02:32:38;15.30;99.90
18823;DHT22;9540;51.550;7.980;2022-08-21T02:35:06;15.40;99.90
18823;DHT22;9540;51.550;7.980;2022-08-21T02:37:34;15.50;99.90
18823;DHT22;9540;51.550;7.980;2022-08-21T02:40:03;15.50;99.90
18823;DHT22;9540;51.550;7.980;2022-08-21T02:42:31;15.50;99.90
18823;DHT22;9540;51.550;7.980;2022-08-21T02:44:59;15.60;99.90
18823;DHT22;9540;51.550;7.980;2022-08-21T02:47:26;15.70;99.90
18823;DHT22;9540;51.550;7.980;2022-08-21T02:49:53;15.70;99.90
18823;DHT22;9540;51.550;7.980;2022-08-21T02:52:20;15.70;99.90
18823;DHT22;9540;51.550;7.980;2022-08-21T02:54:49;15.70;99.90
18823;DHT22;9540;51.550;7.980;2022-08-21T02:57:16;15.70;99.90
18823;DHT22;9540;51.550;7.980;2022-08-21T02:59:47;15.70;99.90
18823;DHT22;9540;51.550;7.980;2022-08-21T03:02:15;15.70;99.90
18823;DHT22;9540;51.550;7.980;2022-08-21T03:04:42;15.70;99.90
18823;DHT22;9540;51.550;7.980;2022-08-21T03:07:10;15.70;99.90
18823;DHT22;9540;51.550;7.980;2022-08-21T03:09:37;15.70;99.90
18823;DHT22;9540;51.550;7.980;2022-08-21T03:12:04;15.70;99.90
18823;DHT22;9540;51.550;7.980;2022-08-21T03:14:31;15.70;99.90
18823;DHT22;9540;51.550;7.980;2022-08-21T03:16:59;15.70;99.90
18823;DHT22;9540;51.550;7.980;2022-08-21T03:19:27;15.70;99.90
18823;DHT22;9540;51.550;7.980;2022-08-21T03:21:54;15.70;99.90
18823;DHT22;9540;51.550;7.980;2022-08-21T03:24:21;15.60;99.90
18823;DHT22;9540;51.550;7.980;2022-08-21T03:26:48;15.70;99.90
18823;DHT22;9540;51.550;7.980;2022-08-21T03:29:16;15.60;99.90
18823;DHT22;9540;51.550;7.980;2022-08-21T03:31:43;15.60;99.90
18823;DHT22;9540;51.550;7.980;2022-08-21T03:34:10;15.60;99.90
18823;DHT22;9540;51.550;7.980;2022-08-21T03:36:41;15.60;99.90
18823;DHT22;9540;51.550;7.980;2022-08-21T03:39:09;15.60;99.90
18823;DHT22;9540;51.550;7.980;2022-08-21T03:41:36;15.50;99.90
18823;DHT22;9540;51.550;7.980;2022-08-21T03:44:03;15.50;99.90
18823;DHT22;9540;51.550;7.980;2022-08-21T03:46:30;15.50;99.90
18823;DHT22;9540;51.550;7.980;2022-08-21T03:48:57;15.40;99.90
18823;DHT22;9540;51.550;7.980;2022-08-21T03:51:24;15.40;99.90
18823;DHT22;9540;51.550;7.980;2022-08-21T03:53:53;15.40;99.90
18823;DHT22;9540;51.550;7.980;2022-08-21T03:56:20;15.40;99.90
18823;DHT22;9540;51.550;7.980;2022-08-21T03:58:47;15.40;99.90
18823;DHT22;9540;51.550;7.980;2022-08-21T04:01:18;15.40;99.90
18823;DHT22;9540;51.550;7.980;2022-08-21T04:03:45;15.30;99.90
18823;DHT22;9540;51.550;7.980;2022-08-21T04:06:15;15.40;99.90
18823;DHT22;9540;51.550;7.980;2022-08-21T04:08:43;15.40;99.90
18823;DHT22;9540;51.550;7.980;2022-08-21T04:11:12;15.40;99.90
18823;DHT22;9540;51.550;7.980;2022-08-21T04:13:39;15.40;99.90
18823;DHT22;9540;51.550;7.980;2022-08-21T04:16:07;15.30;99.90
18823;DHT22;9540;51.550;7.980;2022-08-21T04:18:34;15.30;99.90
18823;DHT22;9540;51.550;7.980;2022-08-21T04:21:02;15.20;99.90
18823;DHT22;9540;51.550;7.980;2022-08-21T04:23:30;15.10;99.90
18823;DHT22;9540;51.550;7.980;2022-08-21T04:25:57;15.10;99.90
18823;DHT22;9540;51.550;7.980;2022-08-21T04:28:27;15.00;99.90
18823;DHT22;9540;51.550;7.980;2022-08-21T04:30:55;14.90;99.90
18823;DHT22;9540;51.550;7.980;2022-08-21T04:33:22;14.90;99.90
18823;DHT22;9540;51.550;7.980;2022-08-21T04:35:50;14.80;99.90
18823;DHT22;9540;51.550;7.980;2022-08-21T04:38:17;14.90;99.90
18823;DHT22;9540;51.550;7.980;2022-08-21T04:40:45;14.90;99.90
18823;DHT22;9540;51.550;7.980;2022-08-21T04:43:12;14.90;99.90
18823;DHT22;9540;51.550;7.980;2022-08-21T04:45:43;14.90;99.90
18823;DHT22;9540;51.550;7.980;2022-08-21T04:48:12;14.90;99.90
18823;DHT22;9540;51.550;7.980;2022-08-21T04:50:44;14.90;99.90
18823;DHT22;9540;51.550;7.980;2022-08-21T04:53:15;14.90;99.90
18823;DHT22;9540;51.550;7.980;2022-08-21T04:55:47;14.90;99.90
18823;DHT22;9540;51.550;7.980;2022-08-21T04:58:16;14.90;99.90
18823;DHT22;9540;51.550;7.980;2022-08-21T05:00:46;14.80;99.90
18823;DHT22;9540;51.550;7.980;2022-08-21T05:03:16;14.80;99.90
18823;DHT22;9540;51.550;7.980;2022-08-21T05:05:44;14.80;99.90
18823;DHT22;9540;51.550;7.980;2022-08-21T05:08:13;14.80;99.90
18823;DHT22;9540;51.550;7.980;2022-08-21T05:10:41;14.70;99.90
18823;DHT22;9540;51.550;7.980;2022-08-21T05:13:10;14.80;99.90
18823;DHT22;9540;51.550;7.980;2022-08-21T05:15:39;14.80;99.90
18823;DHT22;9540;51.550;7.980;2022-08-21T05:18:12;14.90;99.90
18823;DHT22;9540;51.550;7.980;2022-08-21T05:20:39;15.10;99.90
18823;DHT22;9540;51.550;7.980;2022-08-21T05:23:08;15.20;99.90
18823;DHT22;9540;51.550;7.980;2022-08-21T05:25:36;15.30;99.90
18823;DHT22;9540;51.550;7.980;2022-08-21T05:28:04;15.40;99.90
18823;DHT22;9540;51.550;7.980;2022-08-21T05:30:31;15.50;99.90
18823;DHT22;9540;51.550;7.980;2022-08-21T05:33:00;15.60;99.90
18823;DHT22;9540;51.550;7.980;2022-08-21T05:35:29;15.70;99.90
18823;DHT22;9540;51.550;7.980;2022-08-21T05:37:58;15.70;99.90
18823;DHT22;9540;51.550;7.980;2022-08-21T05:40:26;15.80;99.90
18823;DHT22;9540;51.550;7.980;2022-08-21T05:42:54;15.90;99.90
18823;DHT22;9540;51.550;7.980;2022-08-21T05:45:23;16.00;99.90
18823;DHT22;9540;51.550;7.980;2022-08-21T05:47:50;16.10;99.90
18823;DHT22;9540;51.550;7.980;2022-08-21T05:50:17;16.20;99.90
18823;DHT22;9540;51.550;7.980;2022-08-21T05:52:46;16.30;99.90
18823;DHT22;9540;51.550;7.980;2022-08-21T05:55:13;16.30;99.90
18823;DHT22;9540;51.550;7.980;2022-08-21T05:57:40;16.50;99.90
18823;DHT22;9540;51.550;7.980;2022-08-21T06:00:08;16.60;99.90
18823;DHT22;9540;51.550;7.980;2022-08-21T06:02:37;16.70;99.90
18823;DHT22;9540;51.550;7.980;2022-08-21T06:05:05;16.80;99.90
18823;DHT22;9540;51.550;7.980;2022-08-21T06:07:32;16.90;99.90
18823;DHT22;9540;51.550;7.980;2022-08-21T06:10:01;17.00;99.90
18823;DHT22;9540;51.550;7.980;2022-08-21T06:12:29;17.10;99.90
18823;DHT22;9540;51.550;7.980;2022-08-21T06:14:56;17.10;99.90
18823;DHT22;9540;51.550;7.980;2022-08-21T06:17:23;17.20;99.90
18823;DHT22;9540;51.550;7.980;2022-08-21T06:19:51;17.30;99.90
18823;DHT22;9540;51.550;7.980;2022-08-21T06:22:20;17.40;99.90
18823;DHT22;9540;51.550;7.980;2022-08-21T06:24:47;17.50;99.90
18823;DHT22;9540;51.550;7.980;2022-08-21T06:27:16;17.60;99.90
18823;DHT22;9540;51.550;7.980;2022-08-21T06:29:43;17.60;99.90
18823;DHT22;9540;51.550;7.980;2022-08-21T06:32:12;17.60;99.90
18823;DHT22;9540;51.550;7.980;2022-08-21T06:34:40;17.80;99.90
18823;DHT22;9540;51.550;7.980;2022-08-21T06:37:08;17.80;99.90
18823;DHT22;9540;51.550;7.980;2022-08-21T06:39:35;17.90;99.90
18823;DHT22;9540;51.550;7.980;2022-08-21T06:42:02;17.90;99.90
18823;DHT22;9540;51.550;7.980;2022-08-21T06:44:31;17.90;99.90
18823;DHT22;9540;51.550;7.980;2022-08-21T06:46:59;18.00;99.90
18823;DHT22;9540;51.550;7.980;2022-08-21T06:49:26;18.10;99.90
18823;DHT22;9540;51.550;7.980;2022-08-21T06:51:53;18.30;99.90
18823;DHT22;9540;51.550;7.980;2022-08-21T06:54:20;18.50;99.90
18823;DHT22;9540;51.550;7.980;2022-08-21T06:56:48;18.70;99.90
18823;DHT22;9540;51.550;7.980;2022-08-21T06:59:15;18.80;99.90
18823;DHT22;9540;51.550;7.980;2022-08-21T07:01:43;18.90;99.90
18823;DHT22;9540;51.550;7.980;2022-08-21T07:04:12;19.00;99.90
18823;DHT22;9540;51.550;7.980;2022-08-21T07:06:39;19.10;99.90
18823;DHT22;9540;51.550;7.980;2022-08-21T07:09:06;19.20;99.90
18823;DHT22;9540;51.550;7.980;2022-08-21T07:11:35;19.30;99.90
18823;DHT22;9540;51.550;7.980;2022-08-21T07:14:02;19.50;99.90
18823;DHT22;9540;51.550;7.980;2022-08-21T07:16:30;19.50;99.90
18823;DHT22;9540;51.550;7.980;2022-08-21T07:18:58;19.70;99.90
18823;DHT22;9540;51.550;7.980;2022-08-21T07:21:25;19.80;99.90
18823;DHT22;9540;51.550;7.980;2022-08-21T07:23:53;19.90;99.90
18823;DHT22;9540;51.550;7.980;2022-08-21T07:26:22;19.90;99.90
18823;DHT22;9540;51.550;7.980;2022-08-21T07:28:50;20.00;99.90
18823;DHT22;9540;51.550;7.980;2022-08-21T07:31:19;20.20;99.90
18823;DHT22;9540;51.550;7.980;2022-08-21T07:33:47;20.40;99.90
18823;DHT22;9540;51.550;7.980;2022-08-21T07:36:16;20.40;99.90
18823;DHT22;9540;51.550;7.980;2022-08-21T07:38:44;20.50;99.90
18823;DHT22;9540;51.550;7.980;2022-08-21T07:41:14;20.50;99.90
18823;DHT22;9540;51.550;7.980;2022-08-21T07:43:42;20.50;99.90
18823;DHT22;9540;51.550;7.980;2022-08-21T07:46:10;20.70;99.90
18823;DHT22;9540;51.550;7.980;2022-08-21T07:48:38;20.80;99.90
18823;DHT22;9540;51.550;7.980;2022-08-21T07:51:11;20.80;99.90
18823;DHT22;9540;51.550;7.980;2022-08-21T07:53:40;20.80;99.90
18823;DHT22;9540;51.550;7.980;2022-08-21T07:56:09;20.90;99.90
18823;DHT22;9540;51.550;7.980;2022-08-21T07:58:37;20.90;99.90
18823;DHT22;9540;51.550;7.980;2022-08-21T08:01:05;21.00;99.90
18823;DHT22;9540;51.550;7.980;2022-08-21T08:03:32;21.10;99.90
18823;DHT22;9540;51.550;7.980;2022-08-21T08:06:00;21.10;99.90
18823;DHT22;9540;51.550;7.980;2022-08-21T08:08:30;21.20;99.90
18823;DHT22;9540;51.550;7.980;2022-08-21T08:10:58;21.20;99.90
18823;DHT22;9540;51.550;7.980;2022-08-21T08:13:27;21.20;99.90
18823;DHT22;9540;51.550;7.980;2022-08-21T08:15:54;21.30;99.90
18823;DHT22;9540;51.550;7.980;2022-08-21T08:18:21;21.30;99.90
18823;DHT22;9540;51.550;7.980;2022-08-21T08:20:48;21.30;99.90
18823;DHT22;9540;51.550;7.980;2022-08-21T08:23:15;21.40;99.90
18823;DHT22;9540;51.550;7.980;2022-08-21T08:25:42;21.40;99.90
18823;DHT22;9540;51.550;7.980;2022-08-21T08:28:11;21.50;99.90
18823;DHT22;9540;51.550;7.980;2022-08-21T08:30:38;21.70;99.90
18823;DHT22;9540;51.550;7.980;2022-08-21T08:33:05;21.90;99.90
18823;DHT22;9540;51.550;7.980;2022-08-21T08:35:32;22.10;99.90
18823;DHT22;9540;51.550;7.980;2022-08-21T08:37:59;22.10;99.90
18823;DHT22;9540;51.550;7.980;2022-08-21T08:40:31;22.10;99.90
18823;DHT22;9540;51.550;7.980;2022-08-21T08:43:01;22.30;99.90
18823;DHT22;9540;51.550;7.980;2022-08-21T08:45:30;22.30;99.90
18823;DHT22;9540;51.550;7.980;2022-08-21T08:48:02;22.30;99.90
18823;DHT22;9540;51.550;7.980;2022-08-21T08:50:38;22.30;99.90
18823;DHT22;9540;51.550;7.980;2022-08-21T08:53:10;22.20;99.90
18823;DHT22;9540;51.550;7.980;2022-08-21T08:55:41;22.30;99.90
18823;DHT22;9540;51.550;7.980;2022-08-21T08:58:12;22.40;99.90
18823;DHT22;9540;51.550;7.980;2022-08-21T09:00:47;22.40;99.90
18823;DHT22;9540;51.550;7.980;2022-08-21T09:03:16;22.70;99.90
18823;DHT22;9540;51.550;7.980;2022-08-21T09:05:46;22.90;99.90
18823;DHT22;9540;51.550;7.980;2022-08-21T09:08:23;23.00;99.90
18823;DHT22;9540;51.550;7.980;2022-08-21T09:11:00;23.20;99.90
18823;DHT22;9540;51.550;7.980;2022-08-21T09:13:36;23.20;99.90
18823;DHT22;9540;51.550;7.980;2022-08-21T09:16:13;22.90;99.90
18823;DHT22;9540;51.550;7.980;2022-08-21T09:18:48;22.90;99.90
18823;DHT22;9540;51.550;7.980;2022-08-21T09:21:23;23.20;99.90
18823;DHT22;9540;51.550;7.980;2022-08-21T09:24:00;23.40;99.90
18823;DHT22;9540;51.550;7.980;2022-08-21T09:26:32;23.50;99.90
18823;DHT22;9540;51.550;7.980;2022-08-21T09:29:03;23.70;99.90
18823;DHT22;9540;51.550;7.980;2022-08-21T09:31:34;23.80;99.90
18823;DHT22;9540;51.550;7.980;2022-08-21T09:34:04;23.90;99.90
18823;DHT22;9540;51.550;7.980;2022-08-21T09:36:39;24.00;99.90
18823;DHT22;9540;51.550;7.980;2022-08-21T09:39:07;24.00;99.90
18823;DHT22;9540;51.550;7.980;2022-08-21T09:41:36;23.80;99.90
18823;DHT22;9540;51.550;7.980;2022-08-21T09:44:09;23.50;99.90
18823;DHT22;9540;51.550;7.980;2022-08-21T09:46:38;23.30;99.90
18823;DHT22;9540;51.550;7.980;2022-08-21T09:49:05;22.80;99.90
18823;DHT22;9540;51.550;7.980;2022-08-21T09:51:35;22.90;99.90
18823;DHT22;9540;51.550;7.980;2022-08-21T09:54:14;23.20;99.90
18823;DHT22;9540;51.550;7.980;2022-08-21T09:56:55;23.70;99.90
18823;DHT22;9540;51.550;7.980;2022-08-21T09:59:40;24.00;99.90
18823;DHT22;9540;51.550;7.980;2022-08-21T10:02:25;23.60;99.90
18823;DHT22;9540;51.550;7.980;2022-08-21T10:04:57;23.30;99.90
18823;DHT22;9540;51.550;7.980;2022-08-21T10:07:27;23.10;99.90
18823;DHT22;9540;51.550;7.980;2022-08-21T10:09:59;23.10;99.90
18823;DHT22;9540;51.550;7.980;2022-08-21T10:12:31;23.40;99.90
18823;DHT22;9540;51.550;7.980;2022-08-21T10:15:07;23.70;99.90
18823;DHT22;9540;51.550;7.980;2022-08-21T10:17:44;24.10;99.90
18823;DHT22;9540;51.550;7.980;2022-08-21T10:20:17;24.40;99.90
18823;DHT22;9540;51.550;7.980;2022-08-21T10:22:54;24.60;99.90
18823;DHT22;9540;51.550;7.980;2022-08-21T10:25:33;24.70;99.90
18823;DHT22;9540;51.550;7.980;2022-08-21T10:28:09;24.70;96.30
18823;DHT22;9540;51.550;7.980;2022-08-21T10:30:45;24.80;96.80
18823;DHT22;9540;51.550;7.980;2022-08-21T10:33:27;24.80;96.20
18823;DHT22;9540;51.550;7.980;2022-08-21T10:36:04;24.90;97.40
18823;DHT22;9540;51.550;7.980;2022-08-21T10:38:55;24.90;99.90
18823;DHT22;9540;51.550;7.980;2022-08-21T10:41:32;24.70;99.50
18823;DHT22;9540;51.550;7.980;2022-08-21T10:44:10;24.20;98.00
18823;DHT22;9540;51.550;7.980;2022-08-21T10:46:46;24.00;98.00
18823;DHT22;9540;51.550;7.980;2022-08-21T10:49:26;23.90;99.90
18823;DHT22;9540;51.550;7.980;2022-08-21T10:52:13;23.90;99.90
18823;DHT22;9540;51.550;7.980;2022-08-21T10:54:46;23.90;99.90
18823;DHT22;9540;51.550;7.980;2022-08-21T10:57:29;24.00;99.90
18823;DHT22;9540;51.550;7.980;2022-08-21T11:00:02;23.90;99.90
18823;DHT22;9540;51.550;7.980;2022-08-21T11:02:35;24.00;99.90
18823;DHT22;9540;51.550;7.980;2022-08-21T11:05:11;24.20;99.90
18823;DHT22;9540;51.550;7.980;2022-08-21T11:07:43;24.40;99.90
18823;DHT22;9540;51.550;7.980;2022-08-21T11:10:18;24.50;99.80
18823;DHT22;9540;51.550;7.980;2022-08-21T11:12:52;24.50;98.70
18823;DHT22;9540;51.550;7.980;2022-08-21T11:15:28;24.40;98.50
18823;DHT22;9540;51.550;7.980;2022-08-21T11:18:03;24.50;96.10
18823;DHT22;9540;51.550;7.980;2022-08-21T11:20:38;24.70;94.60
18823;DHT22;9540;51.550;7.980;2022-08-21T11:23:11;24.50;96.90
18823;DHT22;9540;51.550;7.980;2022-08-21T11:25:45;24.50;96.50
18823;DHT22;9540;51.550;7.980;2022-08-21T11:28:19;24.50;95.90
18823;DHT22;9540;51.550;7.980;2022-08-21T11:30:54;24.50;95.50
18823;DHT22;9540;51.550;7.980;2022-08-21T11:33:41;24.40;94.90
18823;DHT22;9540;51.550;7.980;2022-08-21T11:36:15;24.50;94.40
18823;DHT22;9540;51.550;7.980;2022-08-21T11:38:55;24.70;95.30
18823;DHT22;9540;51.550;7.980;2022-08-21T11:41:28;24.70;94.30
18823;DHT22;9540;51.550;7.980;2022-08-21T11:44:04;24.60;94.30
18823;DHT22;9540;51.550;7.980;2022-08-21T11:46:40;24.70;94.40
18823;DHT22;9540;51.550;7.980;2022-08-21T11:49:25;24.70;92.50
18823;DHT22;9540;51.550;7.980;2022-08-21T11:52:07;24.90;92.10
18823;DHT22;9540;51.550;7.980;2022-08-21T11:54:38;25.10;92.10
18823;DHT22;9540;51.550;7.980;2022-08-21T11:57:16;25.00;91.50
18823;DHT22;9540;51.550;7.980;2022-08-21T11:59:49;24.80;90.90
18823;DHT22;9540;51.550;7.980;2022-08-21T12:02:22;24.80;90.00
18823;DHT22;9540;51.550;7.980;2022-08-21T12:04:53;24.90;89.40
18823;DHT22;9540;51.550;7.980;2022-08-21T12:07:33;24.90;90.70
18823;DHT22;9540;51.550;7.980;2022-08-21T12:10:03;25.00;89.50
18823;DHT22;9540;51.550;7.980;2022-08-21T12:12:33;25.00;90.00
18823;DHT22;9540;51.550;7.980;2022-08-21T12:15:13;25.10;90.30
18823;DHT22;9540;51.550;7.980;2022-08-21T12:17:51;25.10;89.00
18823;DHT22;9540;51.550;7.980;2022-08-21T12:20:37;25.20;89.50
18823;DHT22;9540;51.550;7.980;2022-08-21T12:23:17;25.30;89.40
18823;DHT22;9540;51.550;7.980;2022-08-21T12:25:48;25.10;89.80
18823;DHT22;9540;51.550;7.980;2022-08-21T12:28:27;25.10;90.70
18823;DHT22;9540;51.550;7.980;2022-08-21T12:30:56;25.10;90.30
18823;DHT22;9540;51.550;7.980;2022-08-21T12:33:27;25.10;90.50
18823;DHT22;9540;51.550;7.980;2022-08-21T12:36:03;25.20;91.00
18823;DHT22;9540;51.550;7.980;2022-08-21T12:38:42;25.10;90.40
18823;DHT22;9540;51.550;7.980;2022-08-21T12:41:18;25.10;90.80
18823;DHT22;9540;51.550;7.980;2022-08-21T12:43:58;25.20;91.40
18823;DHT22;9540;51.550;7.980;2022-08-21T12:46:32;25.30;91.50
18823;DHT22;9540;51.550;7.980;2022-08-21T12:49:06;25.40;91.80
18823;DHT22;9540;51.550;7.980;2022-08-21T12:51:42;25.50;90.60
18823;DHT22;9540;51.550;7.980;2022-08-21T12:54:23;25.60;90.90
18823;DHT22;9540;51.550;7.980;2022-08-21T12:56:57;25.40;90.00
18823;DHT22;9540;51.550;7.980;2022-08-21T12:59:24;25.40;90.00
18823;DHT22;9540;51.550;7.980;2022-08-21T13:01:52;25.40;90.10
18823;DHT22;9540;51.550;7.980;2022-08-21T13:04:23;25.40;90.40
18823;DHT22;9540;51.550;7.980;2022-08-21T13:06:54;25.40;88.20
18823;DHT22;9540;51.550;7.980;2022-08-21T13:09:28;25.40;89.00
18823;DHT22;9540;51.550;7.980;2022-08-21T13:11:56;25.40;87.00
18823;DHT22;9540;51.550;7.980;2022-08-21T13:14:29;25.30;88.00
18823;DHT22;9540;51.550;7.980;2022-08-21T13:16:58;25.40;87.90
18823;DHT22;9540;51.550;7.980;2022-08-21T13:19:26;25.50;86.90
18823;DHT22;9540;51.550;7.980;2022-08-21T13:21:55;25.50;87.00
18823;DHT22;9540;51.550;7.980;2022-08-21T13:24:26;25.50;87.50
18823;DHT22;9540;51.550;7.980;2022-08-21T13:26:55;25.60;87.10
18823;DHT22;9540;51.550;7.980;2022-08-21T13:29:28;25.60;86.30
18823;DHT22;9540;51.550;7.980;2022-08-21T13:31:57;25.50;87.40
18823;DHT22;9540;51.550;7.980;2022-08-21T13:34:28;25.50;86.20
18823;DHT22;9540;51.550;7.980;2022-08-21T13:36:59;25.40;87.40
18823;DHT22;9540;51.550;7.980;2022-08-21T13:39:28;25.50;87.40
18823;DHT22;9540;51.550;7.980;2022-08-21T13:41:58;25.40;87.00
18823;DHT22;9540;51.550;7.980;2022-08-21T13:44:33;25.40;87.40
18823;DHT22;9540;51.550;7.980;2022-08-21T13:47:03;25.40;87.20
18823;DHT22;9540;51.550;7.980;2022-08-21T13:49:33;25.50;85.60
18823;DHT22;9540;51.550;7.980;2022-08-21T13:52:01;25.40;84.60
18823;DHT22;9540;51.550;7.980;2022-08-21T13:54:36;25.40;83.80
18823;DHT22;9540;51.550;7.980;2022-08-21T13:57:11;25.40;83.80
18823;DHT22;9540;51.550;7.980;2022-08-21T13:59:42;25.50;87.30
18823;DHT22;9540;51.550;7.980;2022-08-21T14:02:13;25.60;84.90
18823;DHT22;9540;51.550;7.980;2022-08-21T14:04:48;25.50;84.10
18823;DHT22;9540;51.550;7.980;2022-08-21T14:07:21;25.50;85.80
18823;DHT22;9540;51.550;7.980;2022-08-21T14:09:53;25.60;85.00
18823;DHT22;9540;51.550;7.980;2022-08-21T14:12:26;25.50;83.60
18823;DHT22;9540;51.550;7.980;2022-08-21T14:14:55;25.60;84.90
18823;DHT22;9540;51.550;7.980;2022-08-21T14:17:28;25.70;84.80
18823;DHT22;9540;51.550;7.980;2022-08-21T14:19:56;25.70;83.50
18823;DHT22;9540;51.550;7.980;2022-08-21T14:22:36;25.70;84.00
18823;DHT22;9540;51.550;7.980;2022-08-21T14:25:08;25.60;84.90
18823;DHT22;9540;51.550;7.980;2022-08-21T14:27:40;25.60;84.70
18823;DHT22;9540;51.550;7.980;2022-08-21T14:30:12;25.40;83.00
18823;DHT22;9540;51.550;7.980;2022-08-21T14:32:43;25.40;84.50
18823;DHT22;9540;51.550;7.980;2022-08-21T14:35:10;25.60;85.30
18823;DHT22;9540;51.550;7.980;2022-08-21T14:37:40;25.50;85.00
18823;DHT22;9540;51.550;7.980;2022-08-21T14:40:11;25.50;85.00
18823;DHT22;9540;51.550;7.980;2022-08-21T14:42:39;25.60;84.10
18823;DHT22;9540;51.550;7.980;2022-08-21T14:45:13;25.60;84.10
18823;DHT22;9540;51.550;7.980;2022-08-21T14:47:41;25.50;84.90
18823;DHT22;9540;51.550;7.980;2022-08-21T14:50:10;25.40;84.80
18823;DHT22;9540;51.550;7.980;2022-08-21T14:52:38;25.30;82.50
18823;DHT22;9540;51.550;7.980;2022-08-21T14:55:06;25.40;83.10
18823;DHT22;9540;51.550;7.980;2022-08-21T14:57:37;25.40;82.90
18823;DHT22;9540;51.550;7.980;2022-08-21T15:00:05;25.40;82.70
18823;DHT22;9540;51.550;7.980;2022-08-21T15:02:33;25.50;83.10
18823;DHT22;9540;51.550;7.980;2022-08-21T15:05:01;25.50;83.60
18823;DHT22;9540;51.550;7.980;2022-08-21T15:07:28;25.60;83.30
18823;DHT22;9540;51.550;7.980;2022-08-21T15:09:56;25.60;82.90
18823;DHT22;9540;51.550;7.980;2022-08-21T15:12:24;25.60;84.30
18823;DHT22;9540;51.550;7.980;2022-08-21T15:14:53;25.60;82.50
18823;DHT22;9540;51.550;7.980;2022-08-21T15:17:20;25.40;84.50
18823;DHT22;9540;51.550;7.980;2022-08-21T15:19:47;25.20;83.70
18823;DHT22;9540;51.550;7.980;2022-08-21T15:22:14;25.00;84.30
18823;DHT22;9540;51.550;7.980;2022-08-21T15:24:41;24.80;84.50
18823;DHT22;9540;51.550;7.980;2022-08-21T15:27:10;24.60;85.50
18823;DHT22;9540;51.550;7.980;2022-08-21T15:29:37;24.50;85.90
18823;DHT22;9540;51.550;7.980;2022-08-21T15:32:18;24.30;85.50
18823;DHT22;9540;51.550;7.980;2022-08-21T15:34:47;24.10;84.00
18823;DHT22;9540;51.550;7.980;2022-08-21T15:37:15;24.10;84.00
18823;DHT22;9540;51.550;7.980;2022-08-21T15:39:42;24.00;84.30
18823;DHT22;9540;51.550;7.980;2022-08-21T15:42:10;23.90;85.20
18823;DHT22;9540;51.550;7.980;2022-08-21T15:44:39;23.90;85.40
18823;DHT22;9540;51.550;7.980;2022-08-21T15:47:17;23.80;85.60
18823;DHT22;9540;51.550;7.980;2022-08-21T15:49:46;23.80;85.70
18823;DHT22;9540;51.550;7.980;2022-08-21T15:52:14;23.80;85.60
18823;DHT22;9540;51.550;7.980;2022-08-21T15:54:42;23.70;86.40
18823;DHT22;9540;51.550;7.980;2022-08-21T15:57:10;23.70;86.70
18823;DHT22;9540;51.550;7.980;2022-08-21T15:59:44;23.70;87.60
18823;DHT22;9540;51.550;7.980;2022-08-21T16:02:14;23.70;88.20
18823;DHT22;9540;51.550;7.980;2022-08-21T16:04:42;23.70;88.80